Zenith Volou — SVA7165 — position and weather

sailwx.info

Track history (hours):
 
Tides and Currents Weather Stations Pressure Air Temp Water Temp Dewpoint Dewpoint Depression Visibility Wind Speed Wind Dir Waves Ship Positions

Zenith Volou

Last reported at 2018-Apr-23 04:48 UTC. Time now 2018-Apr-26 05:40 UTC.
Position N 39°34' E 024°08'.

; draft 4 m.

Type: Cargo ship. MMSI: 239945800.

Date/timePositionNaut miles runAvg speedWind from/ knotsBaromVisibWave heightAir tempDewpointWater temp
2018-Apr-23 04:48N 39°34' E 024°08'2 7.3
2018-Apr-23 04:30N 39°32' E 024°11'  
2018-Apr-17 13:17N 37°06' E 025°43'2 6.6
2018-Apr-17 13:00N 37°08' E 025°42'3 6.7
2018-Apr-17 12:30N 37°10' E 025°39'8 6.8
2018-Apr-17 11:17N 37°15' E 025°30'2 6.9
2018-Apr-17 11:00N 37°16' E 025°28'3 6.8
2018-Apr-17 10:30N 37°17' E 025°24'3 6.8
2018-Apr-17 10:00N 37°19' E 025°20'3 6.9
2018-Apr-17 09:30N 37°20' E 025°16'3 6.8
2018-Apr-17 09:00N 37°21' E 025°13'3 6.9
2018-Apr-17 08:30N 37°24' E 025°09'3 6.8
2018-Apr-17 08:00N 37°26' E 025°06'8 7.0
2018-Apr-17 06:52N 37°31' E 024°58'3 7.0
2018-Apr-17 06:30N 37°32' E 024°56'4 7.1
2018-Apr-17 05:53N 37°35' E 024°52'3 6.9
2018-Apr-17 05:30N 37°37' E 024°49'  
Track history (hours):
 
Tides and Currents Weather Stations Pressure Air Temp Water Temp Dewpoint Dewpoint Depression Visibility Wind Speed Wind Dir Waves Ship Positions

Zenith Volou

Last reported at 2018-Apr-23 04:48 UTC. Time now 2018-Apr-26 05:40 UTC.
Position N 39°34' E 024°08'.

; draft 4 m.

Type: Cargo ship. MMSI: 239945800.

Date/timePositionNaut miles runAvg speedWind from/ knotsBaromVisibWave heightAir tempDewpointWater temp
2018-Apr-23 04:48N 39°34' E 024°08'2 7.3
2018-Apr-23 04:30N 39°32' E 024°11'  
2018-Apr-17 13:17N 37°06' E 025°43'2 6.6
2018-Apr-17 13:00N 37°08' E 025°42'3 6.7
2018-Apr-17 12:30N 37°10' E 025°39'8 6.8
2018-Apr-17 11:17N 37°15' E 025°30'2 6.9
2018-Apr-17 11:00N 37°16' E 025°28'3 6.8
2018-Apr-17 10:30N 37°17' E 025°24'3 6.8
2018-Apr-17 10:00N 37°19' E 025°20'3 6.9
2018-Apr-17 09:30N 37°20' E 025°16'3 6.8
2018-Apr-17 09:00N 37°21' E 025°13'3 6.9
2018-Apr-17 08:30N 37°24' E 025°09'3 6.8
2018-Apr-17 08:00N 37°26' E 025°06'8 7.0
2018-Apr-17 06:52N 37°31' E 024°58'3 7.0
2018-Apr-17 06:30N 37°32' E 024°56'4 7.1
2018-Apr-17 05:53N 37°35' E 024°52'3 6.9
2018-Apr-17 05:30N 37°37' E 024°49'  

Dump ship's entire track history